Time;durP1;ratioP1;P1;durP2;ratioP2;P2;SDS_P1;SDS_P2;PMS_P1;PMS_P2;Temp;Humidity;BMP_temperature;BMP_pressure;BME280_temperature;BME280_humidity;BME280_pressure;Samples;Min_cycle;Max_cycle;Signal;HPM_P1;HPM_P2
2023/12/10 00:00:57;;;;;;;;;;;;;;;3.33;100.00;99429.31;5065593;28;20105;-84
2023/12/10 00:03:22;;;;;;;6.03;4.10;;;;;;;3.32;100.00;99430.38;5068630;28;19971;-85
2023/12/10 00:05:48;;;;;;;7.10;4.03;;;;;;;3.32;100.00;99425.09;5105339;28;20064;-87
2023/12/10 00:08:14;;;;;;;5.18;3.33;;;;;;;3.34;100.00;99448.66;5119487;28;20032;-89
2023/12/10 00:10:39;;;;;;;6.60;3.92;;;;;;;3.29;100.00;99433.50;5114183;28;20035;-89
2023/12/10 00:13:05;;;;;;;6.22;4.15;;;;;;;3.29;100.00;99426.38;5109803;28;20048;-84
2023/12/10 00:15:31;;;;;;;6.55;3.80;;;;;;;3.29;100.00;99428.22;5050165;28;20046;-83
2023/12/10 00:17:57;;;;;;;8.05;4.50;;;;;;;3.31;100.00;99443.84;5067505;28;20044;-80
2023/12/10 00:20:23;;;;;;;6.60;4.07;;;;;;;3.29;100.00;99446.75;5069716;28;20040;-83
2023/12/10 00:22:49;;;;;;;7.47;4.47;;;;;;;3.29;100.00;99444.91;5075862;28;20052;-89
2023/12/10 00:25:15;;;;;;;6.70;4.30;;;;;;;3.28;100.00;99439.88;5096115;28;20028;-88
2023/12/10 00:27:40;;;;;;;6.60;4.65;;;;;;;3.29;100.00;99447.53;5114589;28;20092;-86
2023/12/10 00:30:07;;;;;;;7.55;4.30;;;;;;;3.26;100.00;99445.41;5105824;28;20025;-88
2023/12/10 00:32:36;;;;;;;7.18;4.72;;;;;;;3.29;100.00;99465.25;5104879;28;20044;-87
2023/12/10 00:35:04;;;;;;;7.35;4.25;;;;;;;3.25;100.00;99454.41;5621492;23;20048;-88
2023/12/10 00:37:30;;;;;;;6.78;3.97;;;;;;;3.30;100.00;99474.78;5064376;28;20104;-88
2023/12/10 00:39:59;;;;;;;8.43;4.35;;;;;;;3.28;100.00;99469.75;5071539;28;20021;-89
2023/12/10 00:42:29;;;;;;;8.38;4.15;;;;;;;3.26;100.00;99476.38;5091596;28;20051;-88
2023/12/10 00:44:56;;;;;;;7.22;3.78;;;;;;;3.25;100.00;99474.75;5092785;28;20040;-87
2023/12/10 00:47:22;;;;;;;8.07;4.20;;;;;;;3.30;100.00;99472.16;5067112;28;20025;-86
2023/12/10 00:58:35;;;;;;;6.95;3.42;;;;;;;3.26;100.00;99468.44;5560303;22;20050;-87
2023/12/10 01:01:03;;;;;;;7.80;3.75;;;;;;;3.27;100.00;99470.03;4986365;28;20453;-76
2023/12/10 01:03:28;;;;;;;6.68;4.05;;;;;;;3.29;100.00;99478.50;4996088;28;20054;-87
2023/12/10 01:05:54;;;;;;;5.60;3.85;;;;;;;3.28;100.00;99476.91;5010338;28;20046;-85
2023/12/10 01:08:20;;;;;;;7.47;3.97;;;;;;;3.29;100.00;99481.16;4990577;28;20082;-89
2023/12/10 01:10:49;;;;;;;7.40;4.18;;;;;;;3.31;100.00;99476.38;5017186;28;20045;-87
2023/12/10 01:13:15;;;;;;;6.93;5.15;;;;;;;3.30;100.00;99490.66;5012065;28;20042;-87
2023/12/10 01:15:41;;;;;;;6.25;4.20;;;;;;;3.31;100.00;99505.50;5014408;28;20045;-85
2023/12/10 01:18:09;;;;;;;6.47;3.72;;;;;;;3.31;100.00;99502.84;4998456;28;20042;-88
2023/12/10 01:20:34;;;;;;;8.05;4.40;;;;;;;3.31;100.00;99500.19;4996226;28;20114;-84
2023/12/10 01:23:03;;;;;;;6.40;4.50;;;;;;;3.31;100.00;99502.84;5013876;28;20033;-85
2023/12/10 01:25:29;;;;;;;5.68;4.00;;;;;;;3.31;100.00;99508.13;5015611;28;20133;-87
2023/12/10 01:27:54;;;;;;;7.43;3.90;;;;;;;3.32;100.00;99503.66;5001651;28;20399;-87
2023/12/10 01:30:23;;;;;;;7.05;4.10;;;;;;;3.33;100.00;99511.34;5012809;28;20121;-85
2023/12/10 01:32:58;;;;;;;8.25;4.35;;;;;;;3.33;100.00;99516.66;5016683;28;20061;-88
2023/12/10 01:35:25;;;;;;;6.68;4.10;;;;;;;3.31;100.00;99518.72;4978904;28;20094;-89
2023/12/10 01:37:51;;;;;;;6.85;4.20;;;;;;;3.32;100.00;99516.88;4992966;28;20056;-87
2023/12/10 01:40:19;;;;;;;6.25;4.65;;;;;;;3.32;100.00;99520.34;4996605;28;20125;-79
2023/12/10 01:42:45;;;;;;;6.32;3.97;;;;;;;3.33;100.00;99526.44;5003114;28;20034;-89
2023/12/10 01:45:11;;;;;;;5.75;3.75;;;;;;;3.35;100.00;99534.91;5009477;28;20038;-88
2023/12/10 01:47:42;;;;;;;6.90;4.05;;;;;;;3.35;100.00;99537.56;4994129;28;20034;-87
2023/12/10 01:50:12;;;;;;;4.97;3.25;;;;;;;3.36;100.00;99534.66;4994811;28;20041;-88
2023/12/10 01:52:41;;;;;;;5.88;3.42;;;;;;;3.36;100.00;99536.50;4998268;28;20110;-89
2023/12/10 01:55:10;;;;;;;6.38;3.33;;;;;;;3.37;100.00;99536.25;5002813;28;20073;-88
2023/12/10 01:57:39;;;;;;;5.55;3.38;;;;;;;3.40;100.00;99545.56;4985901;28;20042;-84
2023/12/10 02:00:06;;;;;;;5.85;3.30;;;;;;;3.42;100.00;99541.59;4999143;28;20027;-85
2023/12/10 02:02:41;;;;;;;4.82;3.33;;;;;;;3.42;100.00;99544.25;5009360;28;20084;-89
2023/12/10 02:05:09;;;;;;;5.18;3.22;;;;;;;3.43;100.00;99545.84;4986307;28;20057;-84
2023/12/10 02:07:35;;;;;;;6.18;3.60;;;;;;;3.44;100.00;99547.44;5003673;28;20042;-86
2023/12/10 02:10:04;;;;;;;5.15;3.30;;;;;;;3.45;100.00;99550.88;4991512;28;20084;-86
2023/12/10 02:12:31;;;;;;;5.45;3.17;;;;;;;3.48;100.00;99547.72;4990733;28;20046;-85
2023/12/10 02:14:57;;;;;;;6.35;3.88;;;;;;;3.48;100.00;99545.88;5007549;28;20092;-83
2023/12/10 02:17:22;;;;;;;4.68;3.03;;;;;;;3.49;100.00;99546.69;4989432;28;20116;-82
2023/12/10 02:19:49;;;;;;;6.40;3.20;;;;;;;3.51;100.00;99547.22;4995733;28;20063;-84
2023/12/10 02:22:20;;;;;;;5.78;3.75;;;;;;;3.52;100.00;99552.28;4985053;28;20030;-79
2023/12/10 02:24:52;;;;;;;5.80;3.45;;;;;;;3.52;100.00;99547.00;4963733;28;20038;-79
2023/12/10 02:27:20;;;;;;;6.07;3.60;;;;;;;3.53;100.00;99556.53;4975644;28;20045;-83
2023/12/10 02:29:48;;;;;;;5.20;3.40;;;;;;;3.55;100.00;99546.47;4976708;28;20540;-81
2023/12/10 02:32:14;;;;;;;5.43;3.78;;;;;;;3.56;100.00;99563.16;4972771;28;20069;-74
2023/12/10 02:34:40;;;;;;;5.82;3.70;;;;;;;3.56;100.00;99563.94;4974240;28;20583;-89
2023/12/10 02:37:07;;;;;;;7.65;3.50;;;;;;;3.53;100.00;99553.88;4989023;28;20046;-83
2023/12/10 02:39:32;;;;;;;8.88;3.80;;;;;;;3.56;100.00;99561.31;4970518;28;20027;-81
2023/12/10 02:41:58;;;;;;;8.90;4.05;;;;;;;3.56;100.00;99569.25;4992427;28;20511;-83
2023/12/10 02:44:24;;;;;;;6.47;3.65;;;;;;;3.59;100.00;99570.59;4978620;28;20114;-85
2023/12/10 02:46:50;;;;;;;6.20;3.63;;;;;;;3.56;100.00;99569.25;4980436;28;20092;-86
2023/12/10 02:49:16;;;;;;;10.13;3.88;;;;;;;3.54;100.00;99562.63;4977626;28;20069;-86
2023/12/10 02:51:42;;;;;;;11.30;3.80;;;;;;;3.58;100.00;99576.13;4995252;28;20033;-81
2023/12/10 02:54:07;;;;;;;10.15;4.25;;;;;;;3.58;100.00;99576.13;4996466;28;20042;-81
2023/12/10 02:56:34;;;;;;;10.07;4.03;;;;;;;3.53;100.00;99567.13;4974587;28;20049;-79
2023/12/10 02:59:00;;;;;;;7.85;3.78;;;;;;;3.53;100.00;99580.34;4987785;28;20054;-81
2023/12/10 03:01:29;;;;;;;8.43;3.58;;;;;;;3.49;100.00;99568.66;4955642;28;20150;-79
2023/12/10 03:03:56;;;;;;;6.15;3.72;;;;;;;3.51;100.00;99577.13;4972613;28;20039;-77
2023/12/10 03:06:21;;;;;;;13.77;4.47;;;;;;;3.52;100.00;99583.22;4994602;28;20506;-81
2023/12/10 03:08:47;;;;;;;10.05;3.83;;;;;;;3.50;100.00;99580.03;4990303;28;20465;-78
2023/12/10 03:11:13;;;;;;;8.90;4.90;;;;;;;3.52;100.00;99584.06;4960465;28;20116;-78
2023/12/10 03:13:42;;;;;;;11.80;4.20;;;;;;;3.53;100.00;99576.91;4976249;28;20034;-84
2023/12/10 03:16:08;;;;;;;13.05;4.60;;;;;;;3.54;100.00;99581.16;4961224;28;20042;-79
2023/12/10 03:18:34;;;;;;;;;;;;;;;3.56;100.00;99582.47;4993672;28;20426;-81
2023/12/10 03:21:00;;;;;;;12.15;4.63;;;;;;;3.57;100.00;99580.63;4976272;28;19913;-81
2023/12/10 03:23:27;;;;;;;14.43;5.00;;;;;;;3.61;100.00;99587.03;4953796;28;20065;-80
2023/12/10 03:25:53;;;;;;;13.50;5.20;;;;;;;3.63;100.00;99584.91;4971556;28;20050;-81
2023/12/10 03:28:18;;;;;;;14.95;5.85;;;;;;;3.68;100.00;99581.53;4959316;28;20121;-78
2023/12/10 03:30:44;;;;;;;12.23;4.75;;;;;;;3.69;100.00;99588.41;4980679;28;20038;-80
2023/12/10 03:33:12;;;;;;;18.45;6.50;;;;;;;3.70;100.00;99592.66;4973689;28;20068;-79
2023/12/10 03:35:37;;;;;;;24.48;5.93;;;;;;;3.70;100.00;99592.66;4974602;28;20045;-81
2023/12/10 03:38:03;;;;;;;23.48;6.22;;;;;;;3.70;100.00;99595.31;4975775;28;20026;-79
2023/12/10 03:40:32;;;;;;;18.10;5.22;;;;;;;3.73;100.00;99600.91;4960462;28;20097;-80
2023/12/10 03:42:58;;;;;;;21.83;5.47;;;;;;;3.73;100.00;99587.66;4988882;28;20050;-80
2023/12/10 03:45:25;;;;;;;18.50;5.85;;;;;;;3.75;100.00;99609.38;4991396;28;20309;-80
2023/12/10 03:47:52;;;;;;;21.27;5.63;;;;;;;3.76;100.00;99602.25;4960416;28;20098;-79
2023/12/10 03:50:18;;;;;;;21.88;5.40;;;;;;;3.78;100.00;99602.78;4959540;28;20045;-79
2023/12/10 03:52:43;;;;;;;17.70;5.15;;;;;;;3.77;100.00;99604.63;4972382;28;20389;-78
2023/12/10 03:55:09;;;;;;;24.75;5.20;;;;;;;3.79;100.00;99607.84;4989845;28;20026;-80
2023/12/10 03:57:35;;;;;;;21.70;5.32;;;;;;;3.82;100.00;99609.19;4974951;28;20109;-78
2023/12/10 04:00:04;;;;;;;22.55;5.45;;;;;;;3.81;100.00;99611.03;4974196;28;20117;-81
2023/12/10 04:02:38;;;;;;;23.42;5.22;;;;;;;3.87;100.00;99617.19;4975009;28;20034;-83
2023/12/10 04:05:04;;;;;;;31.48;5.97;;;;;;;3.91;100.00;99615.59;4972351;28;20163;-80
2023/12/10 04:07:30;;;;;;;36.05;5.38;;;;;;;4.07;100.00;99617.34;4970792;28;20720;-79
2023/12/10 04:09:57;;;;;;;30.98;4.82;;;;;;;4.17;100.00;99611.28;4975063;28;20042;-80
2023/12/10 04:12:23;;;;;;;32.85;4.45;;;;;;;4.31;100.00;99622.25;4974338;28;20043;-80
2023/12/10 04:14:50;;;;;;;31.73;5.05;;;;;;;4.42;100.00;99618.63;4974537;28;20049;-83
2023/12/10 04:17:15;;;;;;;30.23;4.50;;;;;;;4.50;100.00;99628.75;4990456;28;20201;-78
2023/12/10 04:19:42;;;;;;;32.10;3.95;;;;;;;4.63;100.00;99622.97;4967426;28;20787;-79
2023/12/10 04:22:07;;;;;;;;;;;;;;;4.69;100.00;99629.13;4971362;28;20045;-77
2023/12/10 04:24:33;;;;;;;25.38;3.92;;;;;;;4.81;100.00;99636.84;4986079;28;19918;-77
2023/12/10 04:26:59;;;;;;;25.52;3.58;;;;;;;4.86;100.00;99639.53;4983043;28;20034;-80
2023/12/10 04:29:25;;;;;;;31.88;4.10;;;;;;;4.97;100.00;99635.06;4991305;28;20500;-78
2023/12/10 04:31:54;;;;;;;25.33;3.42;;;;;;;5.04;100.00;99648.91;4973915;28;20523;-82
2023/12/10 04:34:20;;;;;;;30.45;3.95;;;;;;;5.05;100.00;99651.28;4984019;28;20095;-80
2023/12/10 04:36:46;;;;;;;22.60;2.97;;;;;;;5.08;100.00;99653.44;4972358;28;20030;-79
2023/12/10 04:39:12;;;;;;;29.20;3.72;;;;;;;5.11;100.00;99652.91;4976099;28;20034;-80
2023/12/10 04:41:39;;;;;;;28.10;3.70;;;;;;;5.17;100.00;99649.22;4968118;28;20038;-79
2023/12/10 04:44:04;;;;;;;23.05;3.05;;;;;;;5.22;100.00;99652.94;4950281;28;20050;-79
2023/12/10 04:46:30;;;;;;;32.42;3.03;;;;;;;5.23;100.00;99654.53;4985264;28;20041;-81
2023/12/10 04:48:56;;;;;;;31.42;3.60;;;;;;;5.25;100.00;99663.03;4970013;28;20038;-80
2023/12/10 04:51:24;;;;;;;25.75;3.67;;;;;;;5.29;100.00;99664.13;4954377;28;20039;-79
2023/12/10 04:53:50;;;;;;;24.33;3.05;;;;;;;5.34;100.00;99656.94;4974570;28;20064;-81
2023/12/10 04:56:18;;;;;;;21.50;2.72;;;;;;;5.39;100.00;99658.84;4971111;28;20038;-79
2023/12/10 04:58:44;;;;;;;30.38;3.42;;;;;;;5.50;100.00;99675.59;4978072;28;20389;-81
2023/12/10 05:01:10;;;;;;;19.77;2.67;;;;;;;5.51;100.00;99664.72;4986829;28;20069;-80
2023/12/10 05:03:36;;;;;;;26.20;2.92;;;;;;;5.53;100.00;99659.94;4989788;28;20121;-79
2023/12/10 05:06:02;;;;;;;21.48;3.00;;;;;;;5.53;100.00;99659.94;4951361;28;20088;-80
2023/12/10 05:08:27;;;;;;;19.52;3.10;;;;;;;5.56;100.00;99658.63;4952528;28;20046;-82
2023/12/10 05:10:54;;;;;;;22.52;2.78;;;;;;;5.54;100.00;99660.72;4983943;28;20034;-78
2023/12/10 05:13:21;;;;;;;28.27;4.47;;;;;;;5.52;100.00;99653.03;4953222;28;20480;-80
2023/12/10 05:15:47;;;;;;;26.00;3.08;;;;;;;5.50;100.00;99654.34;4970109;28;20030;-81
2023/12/10 05:18:14;;;;;;;26.77;2.90;;;;;;;5.50;100.00;99651.69;4984087;28;20042;-80
2023/12/10 05:20:39;;;;;;;18.42;2.80;;;;;;;5.49;100.00;99653.56;4971530;28;20053;-80
2023/12/10 05:23:05;;;;;;;21.92;3.10;;;;;;;5.52;100.00;99661.00;4951336;28;20038;-78
2023/12/10 05:25:30;;;;;;;18.88;2.70;;;;;;;5.57;100.00;99666.31;4981349;28;20030;-79
2023/12/10 05:27:57;;;;;;;23.23;3.20;;;;;;;5.59;100.00;99668.72;4971937;28;20069;-79
2023/12/10 05:30:24;;;;;;;24.73;2.97;;;;;;;5.57;100.00;99654.91;4974492;28;20038;-79
2023/12/10 05:32:50;;;;;;;19.45;2.83;;;;;;;5.62;100.00;99657.53;4970959;28;20062;-81
2023/12/10 05:35:15;;;;;;;20.27;3.25;;;;;;;5.61;100.00;99662.06;4979731;28;20030;-77
2023/12/10 05:37:41;;;;;;;25.67;3.60;;;;;;;5.59;100.00;99653.56;4984273;28;20038;-78
2023/12/10 05:40:08;;;;;;;31.90;3.53;;;;;;;5.57;100.00;99655.69;4953005;28;20034;-79
2023/12/10 05:42:33;;;;;;;21.25;3.00;;;;;;;5.57;100.00;99661.00;4981368;28;20038;-78
2023/12/10 05:44:59;;;;;;;21.80;2.80;;;;;;;5.54;100.00;99672.13;4985987;28;20130;-79
2023/12/10 05:47:25;;;;;;;15.68;2.42;;;;;;;5.54;100.00;99658.84;4967486;28;20070;-78
2023/12/10 05:49:50;;;;;;;27.35;3.15;;;;;;;5.52;100.00;99653.03;4989161;28;20416;-78
2023/12/10 05:52:16;;;;;;;17.65;3.05;;;;;;;5.53;100.00;99659.13;4971230;28;20141;-77
2023/12/10 05:54:42;;;;;;;21.40;2.45;;;;;;;5.53;100.00;99654.63;4990081;28;20068;-79
2023/12/10 05:57:07;;;;;;;27.30;3.22;;;;;;;5.48;100.00;99652.75;4955637;28;20168;-81
2023/12/10 05:59:33;;;;;;;19.48;2.78;;;;;;;5.47;100.00;99658.31;4987845;28;20031;-79
2023/12/10 06:01:59;;;;;;;32.25;2.90;;;;;;;5.49;100.00;99656.22;4973184;28;20038;-79
2023/12/10 06:04:25;;;;;;;25.42;3.20;;;;;;;5.48;100.00;99657.25;4976586;28;20031;-81
2023/12/10 06:06:52;;;;;;;23.55;3.00;;;;;;;5.48;100.00;99662.56;4990268;28;20033;-82
2023/12/10 06:09:18;;;;;;;27.48;3.40;;;;;;;5.47;100.00;99658.31;4994765;28;20108;-81
2023/12/10 06:11:43;;;;;;;22.20;3.90;;;;;;;5.44;100.00;99657.00;4976864;28;20038;-78
2023/12/10 06:14:09;;;;;;;30.65;3.60;;;;;;;5.47;100.00;99666.28;4971147;28;20035;-82
2023/12/10 06:16:35;;;;;;;29.73;3.55;;;;;;;5.47;100.00;99669.72;4973558;28;20034;-81
2023/12/10 06:19:01;;;;;;;19.92;2.70;;;;;;;5.44;100.00;99661.50;4958541;28;20062;-81
2023/12/10 06:21:26;;;;;;;25.33;3.60;;;;;;;5.46;100.00;99665.50;4957386;28;20373;-83
2023/12/10 06:23:52;;;;;;;22.92;3.10;;;;;;;5.48;100.00;99665.22;4953369;28;20046;-80
2023/12/10 06:26:18;;;;;;;22.17;2.70;;;;;;;5.51;100.00;99671.88;4970250;28;20448;-78
2023/12/10 06:28:44;;;;;;;23.30;2.67;;;;;;;5.51;100.00;99669.22;4954021;28;20104;-78
2023/12/10 06:31:09;;;;;;;19.70;2.85;;;;;;;5.49;100.00;99669.50;4969549;28;20049;-78
2023/12/10 06:33:35;;;;;;;24.38;2.72;;;;;;;5.50;100.00;99670.28;4974096;28;20049;-81
2023/12/10 06:36:01;;;;;;;23.85;2.60;;;;;;;5.48;100.00;99670.53;4988382;28;20077;-81
2023/12/10 06:38:27;;;;;;;23.48;2.53;;;;;;;5.52;100.00;99673.47;4984905;28;20744;-79
2023/12/10 06:40:53;;;;;;;19.15;2.47;;;;;;;5.52;100.00;99671.63;4988755;28;20026;-79
2023/12/10 06:43:21;;;;;;;26.33;3.85;;;;;;;5.51;100.00;99672.69;4952070;28;20097;-78
2023/12/10 06:45:47;;;;;;;15.07;2.85;;;;;;;5.50;100.00;99675.59;4956309;28;20034;-79
2023/12/10 06:48:13;;;;;;;22.45;3.08;;;;;;;5.49;100.00;99672.16;4991227;28;20029;-80
2023/12/10 06:50:39;;;;;;;14.57;2.45;;;;;;;5.52;100.00;99668.97;4971850;28;20419;-79
2023/12/10 06:53:04;;;;;;;21.15;3.33;;;;;;;5.51;100.00;99680.66;4957795;28;20043;-79
2023/12/10 06:55:30;;;;;;;21.20;3.03;;;;;;;5.54;100.00;99672.13;4971890;28;20400;-78
2023/12/10 06:57:55;;;;;;;18.58;2.15;;;;;;;5.53;100.00;99681.16;4961741;28;20642;-77
2023/12/10 07:00:22;;;;;;;20.25;2.83;;;;;;;5.53;100.00;99681.16;4971718;28;20035;-78
2023/12/10 07:02:47;;;;;;;17.05;2.60;;;;;;;5.53;100.00;99675.06;4958994;28;20034;-79
2023/12/10 07:05:13;;;;;;;;;;;;;;;5.56;100.00;99678.00;4983853;28;20141;-80
2023/12/10 07:07:39;;;;;;;16.42;2.40;;;;;;;5.56;100.00;99683.31;4993344;28;20379;-78
2023/12/10 07:10:05;;;;;;;18.80;2.53;;;;;;;5.57;100.00;99682.25;4989530;28;20038;-79
2023/12/10 07:12:31;;;;;;;20.17;3.08;;;;;;;5.55;100.00;99679.03;4972304;28;20038;-79
2023/12/10 07:14:57;;;;;;;14.18;2.20;;;;;;;5.55;100.00;99680.91;4953698;28;20121;-79
2023/12/10 07:17:23;;;;;;;16.70;2.38;;;;;;;5.54;100.00;99674.78;4985444;28;20488;-82
2023/12/10 07:19:49;;;;;;;16.90;2.10;;;;;;;5.56;100.00;99690.50;4970195;28;20129;-78
2023/12/10 07:22:15;;;;;;;14.52;2.67;;;;;;;5.54;100.00;99695.25;4988094;28;20555;-79
2023/12/10 07:24:40;;;;;;;13.27;1.90;;;;;;;5.55;100.00;99689.66;4971604;28;20038;-78
2023/12/10 07:27:06;;;;;;;16.30;4.88;;;;;;;5.54;100.00;99688.06;4974868;23;20243;-70
2023/12/10 07:29:32;;;;;;;17.00;2.55;;;;;;;5.53;100.00;99686.47;4983981;28;20046;-70
2023/12/10 07:31:58;;;;;;;13.15;2.58;;;;;;;5.53;100.00;99693.66;4984389;28;20076;-70
2023/12/10 07:34:23;;;;;;;10.98;2.35;;;;;;;5.54;100.00;99681.97;4967183;28;20089;-70
2023/12/10 07:36:49;;;;;;;14.82;2.58;;;;;;;5.52;100.00;99679.59;4983401;28;20043;-70
2023/12/10 07:39:14;;;;;;;15.07;2.67;;;;;;;5.53;100.00;99683.81;4987203;28;20050;-70
2023/12/10 07:41:40;;;;;;;16.92;2.50;;;;;;;5.53;100.00;99686.47;4967800;28;20057;-70
2023/12/10 07:44:06;;;;;;;17.98;2.85;;;;;;;5.52;100.00;99682.22;4979177;28;20522;-69
2023/12/10 07:46:31;;;;;;;17.92;2.67;;;;;;;5.53;100.00;99693.66;4982347;28;20042;-71
2023/12/10 07:48:57;;;;;;;14.95;2.40;;;;;;;5.51;100.00;99688.63;4985374;28;20185;-69
2023/12/10 07:51:23;;;;;;;15.15;2.58;;;;;;;5.52;100.00;99687.56;4983504;28;20030;-69
2023/12/10 07:53:48;;;;;;;12.10;2.35;;;;;;;5.51;100.00;99683.31;4984337;28;20049;-70
2023/12/10 07:56:14;;;;;;;11.70;2.25;;;;;;;5.52;100.00;99684.91;4983718;28;20045;-69
2023/12/10 07:58:40;;;;;;;15.15;2.50;;;;;;;5.53;100.00;99691.00;4967592;28;20100;-69
2023/12/10 08:01:09;;;;;;;10.10;2.03;;;;;;;5.52;100.00;99684.09;4983566;28;20038;-69
2023/12/10 08:03:35;;;;;;;12.43;2.22;;;;;;;5.53;100.00;99694.44;4983948;28;20026;-70
2023/12/10 08:06:01;;;;;;;12.10;2.63;;;;;;;5.53;100.00;99691.78;4984475;28;20121;-71
2023/12/10 08:08:27;;;;;;;12.95;2.50;;;;;;;5.54;100.00;99693.38;4989942;28;20480;-71
2023/12/10 08:10:52;;;;;;;11.75;2.35;;;;;;;5.53;100.00;99683.81;4985076;28;20034;-70
2023/12/10 08:13:18;;;;;;;9.82;2.35;;;;;;;5.54;100.00;99693.38;4984221;28;20039;-70
2023/12/10 08:15:44;;;;;;;11.20;2.00;;;;;;;5.53;100.00;99686.47;4968770;28;20034;-71
2023/12/10 08:18:10;;;;;;;12.65;2.63;;;;;;;5.53;100.00;99689.13;4984098;28;20057;-70
2023/12/10 08:20:35;;;;;;;8.90;1.85;;;;;;;5.54;100.00;99685.41;4982819;28;20480;-70
2023/12/10 08:23:01;;;;;;;13.98;2.20;;;;;;;5.55;100.00;99679.03;4984675;28;20128;-69
2023/12/10 08:25:27;;;;;;;9.50;1.98;;;;;;;5.54;100.00;99682.75;4983252;28;20073;-71
2023/12/10 08:27:53;;;;;;;9.52;2.17;;;;;;;5.56;100.00;99685.97;4982481;28;20466;-70
2023/12/10 08:30:18;;;;;;;8.95;2.20;;;;;;;5.57;100.00;99690.22;4953984;28;20633;-70
2023/12/10 08:32:44;;;;;;;6.95;1.67;;;;;;;5.58;100.00;99691.81;4966613;28;20045;-70
2023/12/10 08:35:10;;;;;;;11.65;2.25;;;;;;;5.60;100.00;99684.38;4981081;28;20551;-69
2023/12/10 08:37:36;;;;;;;7.68;2.03;;;;;;;5.61;100.00;99691.28;4983800;28;20096;-69
2023/12/10 08:40:04;;;;;;;8.77;1.40;;;;;;;5.62;100.00;99684.94;4982779;28;20039;-68
2023/12/10 08:42:30;;;;;;;7.07;1.80;;;;;;;5.62;100.00;99692.91;4981844;28;20033;-69
2023/12/10 08:44:58;;;;;;;7.20;1.30;;;;;;;5.63;100.00;99691.84;4984487;28;20244;-70
2023/12/10 08:47:23;;;;;;;8.23;1.90;;;;;;;5.64;100.00;99695.28;4981711;28;20038;-70
2023/12/10 08:49:50;;;;;;;5.15;1.77;;;;;;;5.65;100.00;99695.03;4983772;28;20049;-71
2023/12/10 08:52:16;;;;;;;7.28;1.90;;;;;;;5.65;100.00;99697.69;4981712;28;20356;-70
2023/12/10 08:54:42;;;;;;;6.68;1.77;;;;;;;5.66;100.00;99696.63;4967387;28;20038;-70
2023/12/10 08:57:08;;;;;;;6.13;1.52;;;;;;;5.67;100.00;99703.50;4967483;28;20045;-71
2023/12/10 08:59:33;;;;;;;6.10;1.60;;;;;;;5.67;100.00;99698.19;4987718;28;20034;-71
2023/12/10 09:01:59;;;;;;;8.07;1.92;;;;;;;5.66;100.00;99701.94;4980933;28;20484;-70
2023/12/10 09:04:25;;;;;;;9.00;1.83;;;;;;;5.68;100.00;99705.09;4982361;28;20113;-70
2023/12/10 09:06:51;;;;;;;6.35;1.58;;;;;;;5.67;100.00;99703.50;4983335;28;20066;-71
2023/12/10 09:09:16;;;;;;;5.07;1.73;;;;;;;5.67;100.00;99703.50;4984407;28;20116;-71
2023/12/10 09:11:42;;;;;;;9.85;1.70;;;;;;;5.70;100.00;99710.19;4967539;28;20026;-69
2023/12/10 09:14:10;;;;;;;6.60;1.50;;;;;;;5.68;100.00;99707.75;4965796;28;20096;-70
2023/12/10 09:16:37;;;;;;;4.47;1.40;;;;;;;5.69;100.00;99716.53;4980713;28;20080;-70
2023/12/10 09:19:03;;;;;;;8.10;1.40;;;;;;;5.69;100.00;99717.34;4984896;28;20803;-71
2023/12/10 09:21:29;;;;;;;5.43;1.40;;;;;;;5.70;100.00;99724.25;4983930;28;20041;-71
2023/12/10 09:23:56;;;;;;;8.10;1.92;;;;;;;5.70;100.00;99716.28;4982453;28;20038;-71
2023/12/10 09:26:22;;;;;;;5.03;1.70;;;;;;;5.71;100.00;99717.09;4965351;28;20046;-71
2023/12/10 09:28:47;;;;;;;5.40;1.58;;;;;;;5.70;100.00;99713.63;4984611;28;20046;-69
2023/12/10 09:31:13;;;;;;;7.38;1.85;;;;;;;5.72;100.00;99732.75;4979595;28;20050;-70
2023/12/10 09:33:39;;;;;;;4.28;2.35;;;;;;;5.74;100.00;99725.31;4983548;28;20042;-70
2023/12/10 09:36:04;;;;;;;5.53;1.50;;;;;;;5.74;100.00;99719.22;4982570;28;20074;-70
2023/12/10 09:38:30;;;;;;;7.32;1.83;;;;;;;5.75;100.00;99726.13;4984617;28;20452;-70
2023/12/10 09:40:57;;;;;;;5.18;1.35;;;;;;;5.75;100.00;99726.91;4983616;28;20037;-70
2023/12/10 09:43:23;;;;;;;7.25;1.60;;;;;;;5.78;100.00;99724.81;4978625;28;20042;-69
2023/12/10 09:45:49;;;;;;;6.95;1.60;;;;;;;5.82;100.00;99731.19;4979206;28;20456;-69
2023/12/10 09:48:15;;;;;;;7.00;1.75;;;;;;;5.84;100.00;99729.06;4980635;28;20492;-69
2023/12/10 09:50:42;;;;;;;7.50;1.45;;;;;;;5.86;100.00;99724.28;4978041;28;20385;-71
2023/12/10 09:53:07;;;;;;;7.22;2.42;;;;;;;5.91;100.00;99724.34;4965129;28;20408;-69
2023/12/10 09:55:33;;;;;;;8.95;2.90;;;;;;;5.93;100.00;99723.00;4979224;28;20037;-70
2023/12/10 09:57:59;;;;;;;;;;;;;;;5.96;100.00;99724.31;4966626;28;20049;-71
2023/12/10 10:00:25;;;;;;;9.35;1.75;;;;;;;5.99;100.00;99724.59;4978846;28;21609;-70
2023/12/10 10:02:58;;;;;;;6.90;1.73;;;;;;;6.03;100.00;99730.22;4980000;28;20034;-69
2023/12/10 10:05:24;;;;;;;5.75;2.05;;;;;;;6.06;100.00;99721.69;4980194;28;20042;-68
2023/12/10 10:07:50;;;;;;;6.68;1.42;;;;;;;6.10;100.00;99732.59;4982217;28;20038;-69
2023/12/10 10:10:16;;;;;;;7.43;1.42;;;;;;;6.12;100.00;99725.94;4981283;28;20427;-69
2023/12/10 10:12:42;;;;;;;5.88;1.88;;;;;;;6.14;100.00;99737.09;4981419;28;20863;-69
2023/12/10 10:15:08;;;;;;;;;;;;;;;6.16;100.00;99737.63;4985968;28;20396;-70
2023/12/10 10:17:36;;;;;;;5.15;1.55;;;;;;;6.17;100.00;99738.47;4964373;28;20961;-70
2023/12/10 10:20:05;;;;;;;3.85;1.30;;;;;;;6.20;100.00;99744.03;4992517;28;20034;-70
2023/12/10 10:22:31;;;;;;;6.45;2.05;;;;;;;6.22;100.00;99739.25;4981131;28;20038;-71
2023/12/10 10:24:57;;;;;;;4.10;1.35;;;;;;;6.22;100.00;99739.25;4976027;28;20784;-71
2023/12/10 10:27:23;;;;;;;3.97;1.65;;;;;;;6.27;100.00;99738.44;4963695;28;20096;-70
2023/12/10 10:29:53;;;;;;;7.00;1.55;;;;;;;6.30;100.00;99743.25;4981645;28;20039;-70
2023/12/10 10:32:23;;;;;;;6.35;1.42;;;;;;;6.31;100.00;99744.84;4965561;28;20039;-69
2023/12/10 10:34:50;;;;;;;4.10;1.25;;;;;;;6.34;100.00;99748.81;4978820;28;20045;-71
2023/12/10 10:37:17;;;;;;;7.32;1.40;;;;;;;6.35;100.00;99753.88;4966207;28;20168;-69
2023/12/10 10:39:44;;;;;;;7.03;1.60;;;;;;;6.34;100.00;99754.16;4969406;28;20045;-68
2023/12/10 10:42:10;;;;;;;3.88;1.60;;;;;;;6.35;100.00;99759.19;4980408;28;20034;-72
2023/12/10 10:44:40;;;;;;;;;;;;;;;6.35;100.00;99771.69;4961849;28;20077;-70
2023/12/10 10:47:07;;;;;;;3.30;1.73;;;;;;;6.35;100.00;99763.72;4981838;28;19924;-69
2023/12/10 10:49:40;;;;;;;3.90;1.38;;;;;;;6.34;100.00;99767.44;4964214;28;20084;-70
2023/12/10 10:52:11;;;;;;;5.85;1.80;;;;;;;6.36;100.00;99773.28;4946743;28;20049;-71
2023/12/10 10:54:38;;;;;;;3.47;0.90;;;;;;;6.36;100.00;99778.59;4981799;28;20220;-71
2023/12/10 10:57:04;;;;;;;3.47;1.17;;;;;;;6.37;100.00;99780.19;4982564;28;20052;-71
2023/12/10 10:59:31;;;;;;;2.97;1.30;;;;;;;6.38;100.00;99785.28;4981542;28;20038;-70
2023/12/10 11:02:10;;;;;;;3.53;1.48;;;;;;;6.37;100.00;99775.69;4983845;28;20054;-71
2023/12/10 11:04:40;;;;;;;5.03;1.35;;;;;;;6.45;100.00;99779.69;4979025;28;20045;-69
2023/12/10 11:07:06;;;;;;;2.22;1.05;;;;;;;6.49;100.00;99786.06;4981978;28;20046;-70
2023/12/10 11:09:52;;;;;;;6.45;1.50;;;;;;;6.53;100.00;99781.81;4963776;28;20034;-69
2023/12/10 11:12:40;;;;;;;1.70;1.17;;;;;;;6.58;100.00;99787.16;4977885;28;20203;-69
2023/12/10 11:15:28;;;;;;;2.70;1.10;;;;;;;6.64;100.00;99796.72;4981463;28;20125;-70
2023/12/10 11:17:59;;;;;;;5.45;1.30;;;;;;;6.68;100.00;99792.44;4984105;28;20104;-70
2023/12/10 11:20:39;;;;;;;4.88;1.80;;;;;;;6.74;100.00;99802.03;4981761;28;20071;-70
2023/12/10 11:23:06;;;;;;;5.00;1.30;;;;;;;6.80;100.00;99789.53;4983928;28;20065;-73
2023/12/10 11:25:32;;;;;;;6.40;1.85;;;;;;;6.87;100.00;99799.91;4982046;28;20041;-68
2023/12/10 11:28:00;;;;;;;9.23;2.10;;;;;;;6.95;100.00;99799.34;4984534;28;20081;-70
2023/12/10 11:30:27;;;;;;;7.60;2.10;;;;;;;7.01;100.00;99814.25;4981452;28;20046;-70
2023/12/10 11:32:54;;;;;;;6.25;1.67;;;;;;;7.05;100.00;99813.47;4954619;28;20495;-70
2023/12/10 11:35:20;;;;;;;7.05;2.13;;;;;;;7.11;100.00;99819.56;4985046;28;20133;-69
2023/12/10 11:37:45;;;;;;;9.27;1.90;;;;;;;7.13;100.00;99822.75;4987202;28;20058;-70